Aeroporto :
LOGIN :

Iscrizione | Disclaimer

   EN    FR    IT 

 










Sommario :    VFR   VFR Marginale   IFR   IFR Intensivo   IFR Molto Intensivo
Visibilità : 
Base nubi : 
>= 8 km
>= 3000ft
5 / 8 km
1000 / 3000 ft
1500m / 5 km
500 / 1000 ft
800 / 1500m
200 / 500 ft
< 800m
< 200 ft
Simboli :   Temporali  Nebbia  Neve Forte  Precipitazioni Forti  Vento > 20 kt
SIGMETs :   Varie  Temporali  Ghiacco  Turbolenza  Onda orograficha  Ceneri Vulcaniche






- Altitudine del aeroporto : 863 ft
- Codice IATA : ZAZ


LEZG - Zaragoza Aragon

ULTIMO METAR :
  • 250500Z 08004KT 3000 BR SCT070 OVC085 06/06 Q1019

METARs OBSOLETI :
  • 250430Z 11003KT 080V150 3000 BR SCT070 OVC085 07/07 Q1019
  • 250400Z 00000KT 4000 BR SCT070 OVC085 07/07 Q1019
  • 250330Z 08004KT 5000 BR SCT070 OVC085 07/07 Q1019
  • 250300Z 10004KT 6000 OVC075 07/07 Q1020
  • 250230Z 09002KT 6000 OVC075 07/07 Q1020

TAF TAF LEZG
Valido dal 25 a 00 ore il 26 a 00 ore UTC


242300Z 2500/2524 VRB03KT 9999 SCT015 TX09/2513Z TN03/2506Z
TEMPO 2500/2510 3000 BR BKN009
PROB40
TEMPO 2500/2509 0800 FG VV002
PROB40
TEMPO 2510/2515 RADZ BKN014
TEMPO 2510/2518 10008KT



MetMap, La meteo Aeronautica in un colpo d'occhio ! - Copyright ORBIFLY Dicembre 2007 - Disclaimer

ORBIFLY MET'MAP TEAM :

Programmazione e sviluppo : Alexandra Zaïnal
Concezione : Baudouin d'Aumeries
Aiuto per la programmazione : Marc-Olivier Méhu
Supporto tecnico e logistico : Manuel Goepfert
Aiuto per la traduzione : Arnaldo La Scala

Contatto : metmap@orbifly.com




FONTI E CREDITI :

   NOAA